Pickwick Observed Data For Previous 48 Hours

Caption
Day and Hour Reservoir Elevation (behind dam)* Tailwater Elevation (below dam)* Average Hourly Discharge*
12/16/2018 1 AM CST 412.13 374.90 148,021
12/16/2018 2 AM CST 412.11 374.87 147,892
12/16/2018 3 AM CST 412.09 374.84 147,631
12/16/2018 4 AM CST 412.10 374.83 147,592
12/16/2018 5 AM CST 412.08 374.85 147,478
12/16/2018 6 AM CST 412.09 374.88 147,471
12/16/2018 7 AM CST 412.09 374.82 147,490
12/16/2018 8 AM CST 412.11 374.84 147,554
12/16/2018 9 AM CST 412.10 374.82 147,636
12/16/2018 10 AM CST 412.10 374.82 147,606
12/16/2018 11 AM CST 412.09 374.79 147,527
12/16/2018 12 PM CST 412.10 374.80 147,450
12/16/2018 1 PM CST 412.10 374.78 147,703
12/16/2018 2 PM CST 412.07 374.77 147,488
12/16/2018 3 PM CST 412.09 374.76 147,502
12/16/2018 4 PM CST 412.07 374.76 147,512
12/16/2018 5 PM CST 412.10 374.81 147,615
12/16/2018 6 PM CST 412.08 374.76 147,524
12/16/2018 7 PM CST 412.08 374.75 147,412
12/16/2018 8 PM CST 412.07 374.75 147,311
12/16/2018 9 PM CST 412.07 374.74 147,387
12/16/2018 10 PM CST 412.08 374.73 147,410
12/16/2018 11 PM CST 412.09 374.73 147,549
12/17/2018 12 AM CST 412.08 374.72 147,537
12/17/2018 1 AM CST 412.08 374.72 147,521
12/17/2018 2 AM CST 412.08 374.72 147,479
12/17/2018 3 AM CST 412.07 374.71 147,432
12/17/2018 4 AM CST 412.08 374.71 147,460
12/17/2018 5 AM CST 412.07 374.70 147,460
12/17/2018 6 AM CST 412.08 374.69 147,465
12/17/2018 7 AM CST 412.06 374.69 147,357
12/17/2018 8 AM CST 412.06 374.68 147,267
12/17/2018 9 AM CST 412.06 374.67 147,351
12/17/2018 10 AM CST 412.06 374.68 147,260
12/17/2018 11 AM CST 412.05 374.66 147,194
12/17/2018 12 PM CST 412.04 374.65 147,019
12/17/2018 1 PM CST 412.04 374.63 147,013
12/17/2018 2 PM CST 412.04 374.62 147,012
12/17/2018 3 PM CST 412.04 374.63 147,081
12/17/2018 4 PM CST 412.01 374.62 146,940
12/17/2018 5 PM CST 411.90 374.60 146,396
12/17/2018 6 PM CST 411.84 374.61 145,374
12/17/2018 7 PM CST 411.77 374.56 144,797
12/17/2018 8 PM CST 411.69 374.46 144,123
12/17/2018 9 PM CST 411.63 374.42 143,461
12/17/2018 10 PM CST 411.55 374.36 142,782
12/17/2018 11 PM CST 411.49 374.32 142,110
12/18/2018 12 AM CST 411.43 374.30 141,518
12/18/2018 1 AM CST 411.36 374.22 140,977
12/18/2018 2 AM CST 411.31 374.14 140,485
12/18/2018 3 AM CST 411.24 374.08 139,771
12/18/2018 4 AM CST 411.18 374.03 139,262
12/18/2018 5 AM CST 411.12 373.98 138,697
12/18/2018 6 AM CST 411.07 373.93 138,274
12/18/2018 7 AM CST 411.01 373.87 137,763

Elevations are in feet above sea level. Discharges are in cubic feet per second and are reported at the end of the hour.